createdAt,value
2023-05-02T00:00:55.839Z,6.35
2023-05-02T00:03:28.126Z,7.10
2023-05-02T00:06:01.288Z,6.15
2023-05-02T00:08:33.501Z,5.70
2023-05-02T00:11:05.927Z,7.32
2023-05-02T00:13:38.758Z,7.10
2023-05-02T00:16:11.463Z,6.82
2023-05-02T00:18:43.936Z,9.67
2023-05-02T00:21:16.259Z,5.95
2023-05-02T00:23:48.355Z,6.55
2023-05-02T00:26:21.460Z,6.40
2023-05-02T00:28:54.027Z,6.50
2023-05-02T00:31:26.316Z,6.45
2023-05-02T00:33:58.452Z,6.38
2023-05-02T00:36:30.583Z,5.55
2023-05-02T00:39:02.661Z,5.90
2023-05-02T00:41:34.921Z,4.80
2023-05-02T00:44:07.441Z,5.38
2023-05-02T00:46:39.802Z,5.47
2023-05-02T00:49:12.404Z,4.93
2023-05-02T00:51:44.783Z,4.97
2023-05-02T00:54:17.293Z,4.57
2023-05-02T00:56:49.839Z,5.10
2023-05-02T00:59:22.138Z,5.20
2023-05-02T01:02:22.190Z,5.68
2023-05-02T01:05:10.495Z,4.97
2023-05-02T01:07:54.606Z,4.75
2023-05-02T01:11:02.180Z,4.65
2023-05-02T01:13:35.911Z,4.90
2023-05-02T01:16:12.180Z,5.07
2023-05-02T01:18:45.424Z,5.55
2023-05-02T01:21:17.573Z,5.45
2023-05-02T01:24:48.726Z,5.13
2023-05-02T01:27:37.167Z,4.82
2023-05-02T01:30:13.300Z,5.60
2023-05-02T01:32:47.391Z,6.03
2023-05-02T01:35:21.577Z,7.40
2023-05-02T01:37:56.259Z,5.82
2023-05-02T01:40:30.005Z,6.70
2023-05-02T01:43:05.433Z,5.53
2023-05-02T01:45:39.477Z,5.70
2023-05-02T01:48:13.120Z,5.65
2023-05-02T01:50:46.923Z,5.07
2023-05-02T01:53:19.539Z,5.70
2023-05-02T01:55:53.781Z,5.72
2023-05-02T01:58:29.963Z,5.55
2023-05-02T02:01:03.625Z,6.97
2023-05-02T02:03:37.384Z,5.15
2023-05-02T02:06:10.506Z,5.25
2023-05-02T02:08:43.161Z,5.40
2023-05-02T02:11:25.157Z,5.13
2023-05-02T02:14:06.647Z,6.30
2023-05-02T02:16:41.710Z,6.47
2023-05-02T02:19:16.315Z,5.38
2023-05-02T02:21:51.019Z,5.43
2023-05-02T02:24:24.145Z,6.32
2023-05-02T02:26:56.220Z,6.03
2023-05-02T02:29:28.795Z,5.10
2023-05-02T02:32:01.153Z,5.13
2023-05-02T02:34:33.293Z,5.60
2023-05-02T02:37:19.054Z,5.43
2023-05-02T02:39:59.876Z,6.10
2023-05-02T02:42:44.757Z,6.15
2023-05-02T02:45:28.437Z,5.13
2023-05-02T02:51:10.157Z,5.80
2023-05-02T02:53:51.363Z,4.55
2023-05-02T02:56:30.140Z,5.38
2023-05-02T02:59:12.785Z,6.68
2023-05-02T03:01:52.547Z,4.95
2023-05-02T03:04:26.386Z,5.18
2023-05-02T03:07:00.709Z,5.35
2023-05-02T03:09:47.847Z,5.88
2023-05-02T03:12:27.292Z,4.97
2023-05-02T03:15:14.996Z,5.82
2023-05-02T03:17:48.947Z,5.70
2023-05-02T03:20:21.349Z,5.65
2023-05-02T03:22:53.748Z,5.55
2023-05-02T03:25:25.830Z,5.30
2023-05-02T03:27:58.483Z,6.07
2023-05-02T03:30:30.926Z,5.93
2023-05-02T03:33:05.074Z,6.25
2023-05-02T03:35:37.594Z,4.95
2023-05-02T03:38:09.871Z,5.60
2023-05-02T03:40:42.411Z,5.07
2023-05-02T03:43:16.639Z,5.03
2023-05-02T03:45:49.269Z,4.93
2023-05-02T03:48:22.564Z,5.00
2023-05-02T03:50:55.433Z,4.72
2023-05-02T03:53:27.924Z,5.75
2023-05-02T03:56:03.294Z,5.35
2023-05-02T03:58:47.516Z,4.85
2023-05-02T04:01:22.101Z,5.18
2023-05-02T04:03:56.178Z,5.88
2023-05-02T04:06:31.968Z,5.65
2023-05-02T04:09:08.110Z,6.13
2023-05-02T04:11:57.758Z,6.13
2023-05-02T04:14:30.363Z,5.97
2023-05-02T04:17:02.948Z,7.15
2023-05-02T04:19:46.175Z,5.50
2023-05-02T04:24:56.760Z,6.40
2023-05-02T04:27:30.739Z,6.15
2023-05-02T04:30:03.798Z,6.27
2023-05-02T04:32:37.227Z,5.72
2023-05-02T04:35:11.346Z,6.40
2023-05-02T04:37:44.389Z,6.53
2023-05-02T04:40:17.022Z,6.43
2023-05-02T04:42:51.336Z,6.25
2023-05-02T04:45:26.926Z,6.75
2023-05-02T04:47:59.376Z,6.03
2023-05-02T04:50:32.550Z,6.20
2023-05-02T04:53:04.786Z,5.85
2023-05-02T04:55:38.074Z,6.22
2023-05-02T04:58:10.988Z,6.03
2023-05-02T05:00:43.947Z,6.67
2023-05-02T05:03:16.468Z,7.25
2023-05-02T05:05:48.934Z,6.60
2023-05-02T05:08:23.262Z,7.57
2023-05-02T05:10:56.322Z,7.53
2023-05-02T05:13:29.391Z,6.15
2023-05-02T05:16:02.301Z,6.35
2023-05-02T05:18:40.938Z,5.68
2023-05-02T05:21:39.803Z,7.00
2023-05-02T05:24:12.892Z,6.13
2023-05-02T05:26:45.227Z,5.05
2023-05-02T05:29:19.346Z,5.65
2023-05-02T05:31:51.511Z,6.00
2023-05-02T05:34:25.936Z,6.68
2023-05-02T05:37:01.969Z,5.53
2023-05-02T05:39:34.991Z,6.28
2023-05-02T05:42:09.905Z,5.68
2023-05-02T05:44:43.070Z,4.85
2023-05-02T05:47:22.819Z,6.75
2023-05-02T05:49:56.853Z,5.43
2023-05-02T05:52:33.315Z,5.53
2023-05-02T05:55:08.174Z,5.53
2023-05-02T05:57:40.505Z,5.43
2023-05-02T06:00:15.046Z,5.38
2023-05-02T06:02:54.127Z,5.55
2023-05-02T06:05:33.247Z,5.60
2023-05-02T06:08:05.427Z,5.97
2023-05-02T06:10:37.822Z,6.13
2023-05-02T06:13:10.348Z,5.55
2023-05-02T06:15:46.075Z,5.60
2023-05-02T06:18:18.430Z,5.60
2023-05-02T06:20:51.100Z,5.65
2023-05-02T06:23:23.200Z,5.78
2023-05-02T06:26:00.641Z,5.63
2023-05-02T06:28:32.979Z,5.80
2023-05-02T06:31:06.233Z,5.63
2023-05-02T06:33:38.708Z,5.50
2023-05-02T06:36:11.113Z,5.40
2023-05-02T06:38:43.420Z,5.78
2023-05-02T06:41:17.981Z,5.60
2023-05-02T06:43:50.485Z,6.03
2023-05-02T06:46:22.589Z,6.18
2023-05-02T06:48:55.070Z,6.45
2023-05-02T06:51:27.949Z,6.38
2023-05-02T06:54:00.695Z,6.70
2023-05-02T06:56:33.162Z,6.00
2023-05-02T06:59:05.507Z,5.93
2023-05-02T07:01:37.886Z,6.50
2023-05-02T07:04:10.285Z,5.70
2023-05-02T07:06:42.553Z,6.18
2023-05-02T07:09:14.674Z,6.63
2023-05-02T07:11:46.821Z,6.55
2023-05-02T07:14:18.882Z,6.35
2023-05-02T07:16:51.080Z,6.80
2023-05-02T07:19:23.148Z,6.55
2023-05-02T07:21:55.220Z,6.93
2023-05-02T07:24:27.335Z,6.60
2023-05-02T07:26:59.444Z,7.45
2023-05-02T07:29:31.964Z,6.05
2023-05-02T07:32:04.848Z,6.45
2023-05-02T07:34:37.160Z,6.60
2023-05-02T07:37:09.239Z,6.60
2023-05-02T07:39:41.491Z,8.05
2023-05-02T07:42:13.640Z,7.45
2023-05-02T07:44:45.895Z,6.60
2023-05-02T07:47:18.017Z,7.78
2023-05-02T07:49:54.364Z,6.90
2023-05-02T07:52:26.738Z,7.18
2023-05-02T07:54:58.728Z,7.28
2023-05-02T07:57:31.069Z,7.40
2023-05-02T08:00:05.573Z,6.60
2023-05-02T08:02:46.661Z,7.85
2023-05-02T08:07:51.679Z,8.25
2023-05-02T08:10:24.769Z,8.50
2023-05-02T08:12:57.160Z,8.98
2023-05-02T08:15:30.525Z,8.75
2023-05-02T08:18:02.688Z,8.85
2023-05-02T08:20:35.032Z,8.10
2023-05-02T08:23:07.133Z,8.50
2023-05-02T08:25:39.658Z,9.35
2023-05-02T08:28:11.884Z,9.57
2023-05-02T08:30:45.728Z,9.88
2023-05-02T08:33:17.874Z,9.43
2023-05-02T08:35:50.703Z,8.55
2023-05-02T08:38:22.749Z,9.27
2023-05-02T08:40:55.084Z,9.43
2023-05-02T08:43:27.302Z,8.88
2023-05-02T08:46:02.036Z,9.07
2023-05-02T08:48:36.759Z,8.68
2023-05-02T08:51:11.372Z,8.38
2023-05-02T08:53:45.124Z,8.38
2023-05-02T08:56:17.167Z,8.98
2023-05-02T08:58:49.206Z,9.68
2023-05-02T09:01:25.103Z,10.63
2023-05-02T09:03:59.187Z,9.52
2023-05-02T09:06:31.481Z,9.80
2023-05-02T09:09:04.062Z,9.75
2023-05-02T09:11:37.060Z,9.30
2023-05-02T09:14:16.978Z,9.00
2023-05-02T09:16:49.132Z,8.70
2023-05-02T09:19:29.452Z,8.98
2023-05-02T09:22:01.877Z,9.00
2023-05-02T09:24:34.731Z,9.97
2023-05-02T09:27:07.103Z,10.40
2023-05-02T09:29:41.010Z,10.00
2023-05-02T09:32:13.200Z,9.90
2023-05-02T09:35:05.017Z,9.48
2023-05-02T09:37:37.178Z,10.10
2023-05-02T09:40:09.899Z,10.32
2023-05-02T09:42:42.772Z,9.47
2023-05-02T09:45:22.397Z,10.50
2023-05-02T09:47:54.612Z,9.18
2023-05-02T09:50:35.185Z,10.75
2023-05-02T09:53:09.986Z,10.25
2023-05-02T09:55:42.299Z,10.15
2023-05-02T09:58:22.966Z,10.77
2023-05-02T10:00:55.305Z,9.52
2023-05-02T10:03:29.563Z,9.02
2023-05-02T10:06:02.142Z,9.60
2023-05-02T10:08:34.977Z,9.50
2023-05-02T10:11:09.172Z,8.63
2023-05-02T10:13:43.587Z,9.13
2023-05-02T10:16:23.927Z,9.05
2023-05-02T10:19:03.566Z,8.60
2023-05-02T10:21:37.261Z,8.80
2023-05-02T10:24:09.916Z,9.07
2023-05-02T10:26:43.757Z,9.80
2023-05-02T10:29:16.568Z,10.30
2023-05-02T10:31:50.324Z,9.97
2023-05-02T10:34:23.155Z,9.30
2023-05-02T10:37:01.539Z,8.98
2023-05-02T10:39:34.096Z,9.75
2023-05-02T10:42:07.381Z,9.02
2023-05-02T10:44:41.501Z,9.00
2023-05-02T10:47:22.189Z,8.55
2023-05-02T10:49:56.225Z,8.95
2023-05-02T10:52:38.357Z,8.13
2023-05-02T10:55:18.159Z,8.40
2023-05-02T10:58:00.398Z,7.95
2023-05-02T11:00:34.191Z,7.85
2023-05-02T11:03:06.619Z,8.40
2023-05-02T11:06:05.821Z,9.07
2023-05-02T11:08:38.256Z,7.95
2023-05-02T11:11:44.593Z,9.27
2023-05-02T11:14:32.513Z,8.70
2023-05-02T11:17:04.727Z,8.43
2023-05-02T11:19:45.900Z,8.35
2023-05-02T11:22:18.191Z,8.55
2023-05-02T11:24:51.602Z,8.98
2023-05-02T11:30:05.896Z,8.30
2023-05-02T11:32:44.620Z,8.40
2023-05-02T11:35:23.798Z,8.43
2023-05-02T11:37:57.848Z,8.32
2023-05-02T11:40:31.646Z,8.82
2023-05-02T11:43:14.661Z,9.55
2023-05-02T11:45:47.050Z,11.50
2023-05-02T11:48:22.291Z,11.35
2023-05-02T11:50:59.425Z,10.98
2023-05-02T11:53:32.244Z,8.95
2023-05-02T11:56:05.416Z,7.90
2023-05-02T11:58:37.759Z,6.40
2023-05-02T12:01:16.220Z,6.90
2023-05-02T12:03:49.708Z,9.00
2023-05-02T12:06:22.985Z,8.95
2023-05-02T12:09:10.324Z,9.67
2023-05-02T12:11:42.425Z,10.73
2023-05-02T12:14:14.553Z,10.10
2023-05-02T12:16:46.955Z,9.18
2023-05-02T12:19:19.566Z,8.15
2023-05-02T12:21:51.888Z,9.43
2023-05-02T12:24:24.322Z,10.27
2023-05-02T12:27:13.652Z,10.82
2023-05-02T12:29:47.457Z,10.10
2023-05-02T12:32:34.026Z,10.48
2023-05-02T12:35:23.129Z,9.18
2023-05-02T12:37:59.182Z,10.30
2023-05-02T12:40:32.202Z,10.23
2023-05-02T12:43:07.536Z,9.77
2023-05-02T12:45:39.679Z,9.35
2023-05-02T12:48:18.945Z,9.60
2023-05-02T12:50:51.569Z,9.98
2023-05-02T12:53:43.956Z,10.17
2023-05-02T12:56:17.252Z,10.00
2023-05-02T12:58:49.579Z,10.55
2023-05-02T13:01:21.774Z,10.02
2023-05-02T13:03:53.973Z,10.27
2023-05-02T13:06:26.412Z,10.77
2023-05-02T13:08:58.717Z,9.93
2023-05-02T13:11:31.062Z,9.45
2023-05-02T13:14:05.375Z,9.23
2023-05-02T13:16:38.030Z,8.35
2023-05-02T13:19:10.417Z,7.68
2023-05-02T13:21:42.537Z,7.72
2023-05-02T13:24:15.234Z,7.43
2023-05-02T13:26:47.352Z,7.30
2023-05-02T13:29:19.595Z,7.47
2023-05-02T13:31:51.783Z,7.85
2023-05-02T13:34:24.226Z,7.25
2023-05-02T13:36:56.795Z,7.13
2023-05-02T13:39:29.371Z,6.03
2023-05-02T13:42:04.513Z,6.18
2023-05-02T13:44:38.315Z,5.03
2023-05-02T13:47:11.314Z,4.50
2023-05-02T13:49:43.791Z,4.97
2023-05-02T13:52:16.266Z,4.45
2023-05-02T13:54:48.589Z,4.90
2023-05-02T13:57:20.715Z,5.15
2023-05-02T13:59:52.848Z,4.90
2023-05-02T14:02:25.077Z,4.28
2023-05-02T14:07:43.519Z,4.80
2023-05-02T14:10:15.666Z,4.03
2023-05-02T14:12:48.163Z,4.22
2023-05-02T14:15:21.078Z,4.32
2023-05-02T14:17:53.551Z,4.70
2023-05-02T14:20:25.717Z,4.35
2023-05-02T14:22:58.675Z,4.85
2023-05-02T14:25:30.856Z,4.60
2023-05-02T14:28:03.809Z,4.72
2023-05-02T14:30:36.138Z,4.83
2023-05-02T14:33:08.357Z,4.57
2023-05-02T14:35:40.873Z,3.90
2023-05-02T14:38:13.314Z,4.70
2023-05-02T14:40:45.372Z,5.32
2023-05-02T14:43:17.546Z,5.53
2023-05-02T14:45:49.757Z,5.68
2023-05-02T14:48:21.775Z,5.88
2023-05-02T14:50:53.992Z,6.22
2023-05-02T14:53:26.553Z,6.78
2023-05-02T14:55:58.659Z,6.82
2023-05-02T14:58:30.940Z,6.32
2023-05-02T15:01:03.340Z,5.93
2023-05-02T15:03:41.379Z,5.80
2023-05-02T15:06:24.828Z,6.35
2023-05-02T15:08:57.321Z,6.05
2023-05-02T15:11:29.347Z,7.05
2023-05-02T15:14:01.537Z,6.75
2023-05-02T15:16:34.558Z,5.93
2023-05-02T15:19:06.724Z,7.20
2023-05-02T15:21:39.694Z,6.70
2023-05-02T15:24:11.843Z,7.85
2023-05-02T15:26:44.202Z,7.70
2023-05-02T15:29:16.336Z,7.07
2023-05-02T15:31:49.056Z,5.93
2023-05-02T15:34:21.769Z,7.20
2023-05-02T15:36:55.077Z,6.00
2023-05-02T15:39:28.231Z,7.07
2023-05-02T15:42:04.953Z,5.35
2023-05-02T15:44:37.692Z,5.90
2023-05-02T15:47:09.781Z,5.93
2023-05-02T15:49:42.177Z,7.57
2023-05-02T15:52:14.320Z,7.35
2023-05-02T15:54:46.528Z,40.50
2023-05-02T15:57:19.775Z,8.57
2023-05-02T15:59:52.455Z,14.95
2023-05-02T16:02:24.640Z,14.60
2023-05-02T16:04:56.824Z,6.53
2023-05-02T16:07:28.950Z,29.13
2023-05-02T16:10:01.323Z,7.20
2023-05-02T16:12:34.078Z,7.57
2023-05-02T16:15:07.176Z,27.88
2023-05-02T16:17:39.933Z,7.03
2023-05-02T16:20:13.028Z,11.75
2023-05-02T16:22:47.182Z,37.67
2023-05-02T16:25:19.941Z,10.07
2023-05-02T16:27:52.046Z,34.27
2023-05-02T16:30:24.332Z,10.77
2023-05-02T16:32:56.654Z,11.32
2023-05-02T16:35:29.164Z,9.02
2023-05-02T16:38:01.963Z,6.80
2023-05-02T16:40:34.368Z,6.60
2023-05-02T16:43:07.897Z,7.18
2023-05-02T16:48:12.380Z,7.45
2023-05-02T16:50:44.456Z,8.02
2023-05-02T16:53:16.535Z,8.23
2023-05-02T16:55:48.624Z,8.13
2023-05-02T16:58:20.745Z,9.00
2023-05-02T17:00:52.966Z,8.38
2023-05-02T17:03:25.111Z,10.43
2023-05-02T17:06:02.074Z,7.32
2023-05-02T17:08:34.452Z,7.47
2023-05-02T17:11:08.010Z,7.45
2023-05-02T17:16:12.553Z,7.78
2023-05-02T17:18:44.790Z,8.20
2023-05-02T17:21:16.996Z,8.85
2023-05-02T17:23:49.318Z,9.73
2023-05-02T17:26:22.517Z,9.38
2023-05-02T17:28:54.619Z,10.85
2023-05-02T17:31:26.760Z,11.43
2023-05-02T17:33:58.923Z,10.50
2023-05-02T17:36:32.753Z,9.43
2023-05-02T17:39:04.928Z,10.05
2023-05-02T17:41:37.914Z,9.73
2023-05-02T17:44:10.358Z,9.27
2023-05-02T17:46:43.350Z,8.68
2023-05-02T17:49:15.720Z,9.68
2023-05-02T17:51:50.891Z,10.63
2023-05-02T17:54:23.055Z,10.60
2023-05-02T17:56:55.644Z,8.98
2023-05-02T17:59:28.016Z,8.60
2023-05-02T18:02:00.704Z,8.88
2023-05-02T18:04:34.594Z,8.23
2023-05-02T18:07:06.960Z,8.90
2023-05-02T18:09:39.412Z,9.25
2023-05-02T18:12:11.456Z,9.45
2023-05-02T18:14:43.666Z,8.68
2023-05-02T18:17:17.936Z,9.55
2023-05-02T18:19:50.840Z,11.43
2023-05-02T18:22:23.092Z,9.23
2023-05-02T18:24:56.543Z,7.38
2023-05-02T18:27:28.909Z,7.72
2023-05-02T18:30:02.410Z,8.43
2023-05-02T18:32:34.836Z,7.72
2023-05-02T18:35:13.174Z,5.88
2023-05-02T18:37:45.204Z,6.93
2023-05-02T18:40:17.586Z,7.55
2023-05-02T18:42:49.613Z,7.78
2023-05-02T18:45:21.871Z,7.28
2023-05-02T18:47:53.971Z,7.25
2023-05-02T18:50:28.913Z,6.25
2023-05-02T18:53:01.136Z,6.93
2023-05-02T18:55:33.531Z,6.30
2023-05-02T18:58:05.563Z,7.20
2023-05-02T19:00:38.175Z,7.28
2023-05-02T19:03:10.600Z,7.25
2023-05-02T19:05:43.973Z,7.80
2023-05-02T19:08:16.373Z,6.63
2023-05-02T19:10:48.688Z,6.78
2023-05-02T19:13:20.838Z,6.68
2023-05-02T19:15:53.362Z,7.72
2023-05-02T19:18:26.221Z,7.80
2023-05-02T19:20:58.741Z,8.13
2023-05-02T19:23:30.793Z,8.45
2023-05-02T19:26:04.591Z,6.60
2023-05-02T19:28:37.043Z,8.02
2023-05-02T19:31:22.981Z,7.15
2023-05-02T19:33:55.112Z,7.00
2023-05-02T19:36:30.110Z,7.13
2023-05-02T19:39:02.780Z,7.20
2023-05-02T19:41:35.171Z,8.33
2023-05-02T19:44:08.037Z,8.50
2023-05-02T19:46:40.342Z,7.22
2023-05-02T19:49:12.823Z,8.20
2023-05-02T19:51:44.989Z,7.05
2023-05-02T19:54:17.128Z,7.22
2023-05-02T19:56:49.361Z,8.25
2023-05-02T19:59:22.451Z,16.17
2023-05-02T20:01:55.451Z,17.45
2023-05-02T20:04:28.108Z,30.15
2023-05-02T20:07:00.166Z,16.58
2023-05-02T20:09:32.628Z,12.95
2023-05-02T20:12:07.483Z,11.07
2023-05-02T20:14:41.443Z,9.73
2023-05-02T20:17:17.023Z,10.10
2023-05-02T20:19:49.342Z,8.52
2023-05-02T20:22:27.638Z,8.00
2023-05-02T20:24:59.802Z,8.65
2023-05-02T20:27:32.220Z,8.25
2023-05-02T20:30:05.050Z,7.82
2023-05-02T20:32:40.096Z,8.80
2023-05-02T20:35:12.429Z,8.70
2023-05-02T20:37:48.801Z,8.80
2023-05-02T20:42:55.064Z,10.50
2023-05-02T20:45:27.493Z,11.43
2023-05-02T20:47:59.635Z,10.23
2023-05-02T20:50:32.636Z,10.55
2023-05-02T20:53:05.090Z,14.95
2023-05-02T20:55:37.193Z,14.93
2023-05-02T20:58:09.561Z,10.75
2023-05-02T21:00:41.939Z,11.65
2023-05-02T21:03:14.129Z,11.82
2023-05-02T21:05:50.986Z,10.40
2023-05-02T21:08:23.392Z,13.20
2023-05-02T21:10:55.475Z,15.88
2023-05-02T21:13:27.510Z,15.48
2023-05-02T21:15:59.659Z,20.10
2023-05-02T21:18:33.718Z,16.30
2023-05-02T21:21:05.824Z,16.08
2023-05-02T21:23:38.003Z,15.85
2023-05-02T21:26:10.414Z,15.15
2023-05-02T21:28:42.618Z,16.83
2023-05-02T21:31:14.961Z,15.57
2023-05-02T21:33:47.072Z,17.58
2023-05-02T21:36:19.144Z,19.65
2023-05-02T21:38:51.380Z,19.35
2023-05-02T21:41:23.449Z,21.20
2023-05-02T21:43:56.117Z,18.45
2023-05-02T21:46:28.305Z,20.60
2023-05-02T21:49:00.364Z,22.00
2023-05-02T21:51:34.194Z,21.27
2023-05-02T21:54:07.536Z,21.60
2023-05-02T21:56:39.611Z,19.27
2023-05-02T21:59:11.684Z,21.08
2023-05-02T22:01:43.873Z,22.02
2023-05-02T22:04:16.561Z,19.30
2023-05-02T22:06:53.258Z,16.98
2023-05-02T22:09:25.732Z,15.70
2023-05-02T22:11:58.122Z,16.65
2023-05-02T22:14:41.744Z,16.33
2023-05-02T22:17:18.777Z,16.17
2023-05-02T22:19:54.384Z,17.85
2023-05-02T22:22:26.522Z,16.52
2023-05-02T22:24:58.670Z,16.88
2023-05-02T22:27:30.727Z,13.73
2023-05-02T22:30:03.196Z,12.32
2023-05-02T22:32:36.567Z,12.52
2023-05-02T22:35:09.160Z,11.35
2023-05-02T22:37:41.239Z,12.15
2023-05-02T22:40:13.938Z,12.23
2023-05-02T22:42:46.060Z,12.43
2023-05-02T22:45:18.880Z,14.38
2023-05-02T22:47:52.394Z,13.90
2023-05-02T22:52:59.773Z,12.65
2023-05-02T22:55:32.335Z,12.70
2023-05-02T22:58:04.674Z,12.10
2023-05-02T23:00:37.288Z,11.38
2023-05-02T23:03:10.681Z,13.82
2023-05-02T23:05:43.266Z,13.20
2023-05-02T23:08:15.401Z,11.98
2023-05-02T23:10:47.537Z,12.30
2023-05-02T23:13:19.664Z,12.13
2023-05-02T23:15:55.654Z,14.07
2023-05-02T23:18:27.741Z,11.25
2023-05-02T23:20:59.792Z,10.48
2023-05-02T23:23:31.921Z,10.65
2023-05-02T23:26:04.543Z,10.15
2023-05-02T23:28:36.617Z,10.23
2023-05-02T23:31:09.260Z,10.48
2023-05-02T23:33:41.432Z,12.07
2023-05-02T23:36:13.614Z,11.50
2023-05-02T23:38:46.440Z,10.38
2023-05-02T23:41:18.562Z,9.47
2023-05-02T23:43:51.127Z,10.15
2023-05-02T23:46:23.319Z,9.85
2023-05-02T23:48:55.696Z,11.75
2023-05-02T23:51:28.653Z,13.70
2023-05-02T23:54:01.616Z,14.05
2023-05-02T23:56:33.894Z,12.93
2023-05-02T23:59:06.564Z,10.90
